Pineville, South Carolina
Current Conditions -  °F | °C
As of 9:55 PM on Sunday 21 Dec 2014 (Local Time) from KMKS Reporting Station
Light Rain Light Rain  
Wind Chill:   Ceiling: 2900
Heat Index:   Visibility: 10mi
Dew Point:   Wind: 6mph
Humidity: 87%   Direction: 50°NE
Pressure: 30.12"   Gusts: NA
Location:  33.43°N, 80.02°W
Report Text: KMKS 220255Z AUTO 05005KT 10SM -RA SCT016 BKN029 OVC034 09/07 A3012 RMK AO2 P0001
Loading
Personal Weather Stations






























Interactive Weather Map New forecast layout! Learn more

10-Day Weather Forecast

Advertisements
Track Severe Weather on mobile